Time;durP1;ratioP1;P1;durP2;ratioP2;P2;SDS_P1;SDS_P2;PMS_P1;PMS_P2;Temp;Humidity;BMP_temperature;BMP_pressure;BME280_temperature;BME280_humidity;BME280_pressure;Samples;Min_cycle;Max_cycle;Signal;HPM_P1;HPM_P2
2022/01/28 00:00:13;;;;;;;16.15;2.90;;;5.20;99.90;;;;;;5127399;28;20079;-64
2022/01/28 00:05:18;;;;;;;17.95;3.25;;;5.10;99.90;;;;;;5127260;28;20585;-65
2022/01/28 00:07:44;;;;;;;17.45;2.72;;;5.00;99.90;;;;;;5109809;28;20054;-64
2022/01/28 00:10:10;;;;;;;15.48;3.33;;;5.00;99.90;;;;;;5121202;27;20071;-64
2022/01/28 00:12:43;;;;;;;17.52;3.15;;;5.00;99.90;;;;;;5127829;28;20468;-65
2022/01/28 00:15:20;;;;;;;12.70;3.55;;;5.00;99.90;;;;;;5114193;28;20040;-64
2022/01/28 00:39:44;;;;;;;20.88;3.15;;;4.90;99.90;;;;;;5086016;28;20091;-64
2022/01/28 00:42:10;;;;;;;14.13;3.45;;;5.00;99.90;;;;;;5080123;28;20082;-64
2022/01/28 00:44:36;;;;;;;13.73;2.80;;;5.00;99.90;;;;;;5100857;28;20489;-64
2022/01/28 00:47:02;;;;;;;15.60;2.85;;;5.00;99.90;;;;;;5097813;28;20078;-64
2022/01/28 00:49:28;;;;;;;21.17;5.05;;;5.00;99.90;;;;;;5081382;28;20040;-65
2022/01/28 00:51:54;;;;;;;20.17;3.22;;;5.00;99.90;;;;;;5096996;28;20067;-64
2022/01/28 00:54:20;;;;;;;16.08;3.08;;;5.00;99.90;;;;;;5097792;28;20036;-64
2022/01/28 00:56:46;;;;;;;14.95;3.33;;;5.00;99.90;;;;;;5094334;28;20056;-66
2022/01/28 00:59:13;;;;;;;22.23;3.25;;;4.90;99.90;;;;;;5097245;28;20082;-64
2022/01/28 01:01:38;;;;;;;17.42;3.25;;;4.90;99.90;;;;;;5083458;28;20592;-64
2022/01/28 01:04:05;;;;;;;17.05;3.35;;;4.90;99.90;;;;;;5082072;28;20039;-64
2022/01/28 01:06:31;;;;;;;16.33;2.67;;;4.90;99.90;;;;;;5115867;28;20108;-64
2022/01/28 01:08:58;;;;;;;20.02;4.78;;;4.90;99.90;;;;;;5123223;28;20047;-64
2022/01/28 01:11:25;;;;;;;18.38;3.28;;;4.80;99.90;;;;;;5127355;28;20047;-64
2022/01/28 01:13:52;;;;;;;16.90;3.50;;;4.90;99.90;;;;;;5126514;28;20051;-65
2022/01/28 01:16:25;;;;;;;11.40;2.33;;;4.80;99.90;;;;;;5125703;28;20058;-64
2022/01/28 01:21:38;;;;;;;16.00;3.15;;;4.90;99.90;;;;;;5159999;27;20102;-64
2022/01/28 01:24:06;;;;;;;7.18;1.98;;;5.00;99.90;;;;;;5124540;28;20051;-64
2022/01/28 01:26:35;;;;;;;16.35;3.65;;;5.10;99.90;;;;;;5125310;28;20051;-64
2022/01/28 01:29:05;;;;;;;15.20;2.20;;;5.10;99.90;;;;;;5126305;28;20036;-64
2022/01/28 01:31:31;;;;;;;16.52;3.22;;;5.10;99.90;;;;;;5125069;28;20039;-64
2022/01/28 01:34:12;;;;;;;13.27;2.92;;;5.30;99.90;;;;;;5115329;28;20574;-64
2022/01/28 01:36:38;;;;;;;15.88;3.22;;;5.20;99.90;;;;;;5126102;28;20047;-64
2022/01/28 01:39:07;;;;;;;21.10;3.45;;;5.10;99.90;;;;;;5127410;27;20050;-64
2022/01/28 01:41:41;;;;;;;17.13;3.10;;;5.20;99.90;;;;;;5121631;28;20043;-65
2022/01/28 01:44:25;;;;;;;12.48;2.55;;;5.20;99.90;;;;;;5159174;27;20058;-64
2022/01/28 01:52:20;;;;;;;14.35;2.90;;;5.30;99.90;;;;;;5124191;28;20044;-64
2022/01/28 01:54:47;;;;;;;15.63;3.47;;;5.20;99.90;;;;;;5117652;28;20043;-65
2022/01/28 01:57:13;;;;;;;20.45;3.35;;;5.30;99.90;;;;;;5125782;28;20039;-65
2022/01/28 01:59:41;;;;;;;9.20;2.53;;;5.40;99.90;;;;;;5110594;27;20063;-65
2022/01/28 02:02:07;;;;;;;12.45;3.33;;;5.60;99.90;;;;;;5116573;28;20043;-65
2022/01/28 02:04:33;;;;;;;19.35;2.63;;;5.70;99.90;;;;;;5127125;28;20097;-64
2022/01/28 02:07:00;;;;;;;17.50;2.70;;;5.60;99.90;;;;;;5126776;28;20051;-65
2022/01/28 02:09:26;;;;;;;14.73;2.80;;;5.60;99.90;;;;;;5120602;28;20047;-64
2022/01/28 02:11:53;;;;;;;21.08;4.50;;;5.40;99.90;;;;;;5126827;28;20054;-65
2022/01/28 02:14:18;;;;;;;13.82;2.88;;;5.30;99.90;;;;;;5125574;28;20071;-64
2022/01/28 02:16:44;;;;;;;20.65;3.38;;;5.10;99.90;;;;;;5159004;27;20046;-64
2022/01/28 02:19:10;;;;;;;20.88;3.85;;;4.90;99.90;;;;;;5120266;28;20096;-65
2022/01/28 02:21:47;;;;;;;20.38;3.55;;;4.90;99.90;;;;;;5124946;28;20134;-64
2022/01/28 02:24:16;;;;;;;17.88;3.58;;;4.90;99.90;;;;;;5158728;27;20054;-64
2022/01/28 02:26:42;;;;;;;17.33;3.40;;;4.90;99.90;;;;;;5122651;28;20042;-65
2022/01/28 02:29:12;;;;;;;21.65;3.90;;;4.90;99.90;;;;;;5124787;28;20051;-64
2022/01/28 02:31:38;;;;;;;19.48;4.05;;;5.00;99.90;;;;;;5124137;28;20535;-65
2022/01/28 02:34:06;;;;;;;25.13;3.83;;;4.90;99.90;;;;;;5117767;28;20040;-64
2022/01/28 02:36:32;;;;;;;19.88;4.18;;;4.90;99.90;;;;;;5158159;27;20055;-65
2022/01/28 02:38:59;;;;;;;27.98;5.18;;;4.90;99.90;;;;;;5123428;28;20039;-65
2022/01/28 02:41:30;;;;;;;25.05;3.38;;;5.00;99.90;;;;;;5123366;28;20126;-64
2022/01/28 02:46:33;;;;;;;18.58;3.50;;;5.10;99.90;;;;;;5113529;28;20058;-65
2022/01/28 02:49:08;;;;;;;25.02;4.40;;;5.10;99.90;;;;;;5123528;28;20073;-64
2022/01/28 02:51:34;;;;;;;28.48;4.63;;;5.10;99.90;;;;;;5124110;28;20051;-64
2022/01/28 02:54:11;;;;;;;22.27;3.35;;;5.00;99.90;;;;;;5123223;28;20043;-64
2022/01/28 02:56:39;;;;;;;19.55;3.25;;;5.10;99.90;;;;;;5117120;28;20043;-64
2022/01/28 02:59:06;;;;;;;24.08;4.00;;;5.10;99.90;;;;;;5124135;28;20055;-64
2022/01/28 03:01:32;;;;;;;29.65;4.97;;;5.10;99.90;;;;;;5117306;28;20104;-64
2022/01/28 03:04:01;;;;;;;23.40;3.92;;;5.10;99.90;;;;;;5123167;28;20075;-64
2022/01/28 03:06:27;;;;;;;26.48;3.80;;;5.10;99.90;;;;;;5123237;28;20107;-64
2022/01/28 03:08:58;;;;;;;25.95;4.18;;;5.10;99.90;;;;;;5122077;28;20044;-64
2022/01/28 03:16:41;;;;;;;17.50;3.75;;;5.10;99.90;;;;;;5123414;28;20082;-64
2022/01/28 03:19:17;;;;;;;26.80;4.95;;;5.20;99.90;;;;;;5099305;28;20048;-65
2022/01/28 03:21:53;;;;;;;21.85;4.60;;;5.20;99.90;;;;;;5121300;28;20127;-64
2022/01/28 03:24:19;;;;;;;20.23;4.38;;;5.20;99.90;;;;;;5137448;27;20039;-64
2022/01/28 03:26:49;;;;;;;27.60;3.83;;;5.30;99.90;;;;;;5121466;28;20082;-65
2022/01/28 03:29:14;;;;;;;21.98;4.38;;;5.20;99.90;;;;;;5120689;28;20054;-64
2022/01/28 03:31:40;;;;;;;20.23;4.47;;;5.20;99.90;;;;;;5122553;28;20052;-64
2022/01/28 03:34:06;;;;;;;23.60;3.92;;;5.30;99.90;;;;;;5116496;28;20146;-65
2022/01/28 03:36:32;;;;;;;29.00;3.58;;;5.40;99.90;;;;;;5122834;28;20124;-64
2022/01/28 03:38:58;;;;;;;20.05;4.43;;;5.40;99.90;;;;;;5124046;28;20143;-64
2022/01/28 03:41:24;;;;;;;18.02;3.88;;;5.40;99.90;;;;;;5122458;28;20071;-65
2022/01/28 03:43:57;;;;;;;17.25;3.83;;;5.60;99.90;;;;;;5122843;28;20054;-64
2022/01/28 03:46:27;;;;;;;23.88;3.60;;;5.70;99.90;;;;;;5122648;28;20065;-64
2022/01/28 03:48:54;;;;;;;21.92;4.05;;;5.60;99.90;;;;;;5123111;28;20099;-64
2022/01/28 03:51:21;;;;;;;26.00;4.38;;;5.60;99.90;;;;;;5122625;28;20043;-64
2022/01/28 03:53:47;;;;;;;16.98;2.72;;;5.60;99.90;;;;;;5123536;28;20048;-65
2022/01/28 03:56:13;;;;;;;22.90;4.45;;;5.80;99.90;;;;;;5115282;28;20540;-65
2022/01/28 03:58:39;;;;;;;17.15;3.08;;;5.80;99.90;;;;;;5116761;28;20103;-64
2022/01/28 04:01:11;;;;;;;20.88;3.78;;;5.70;99.90;;;;;;5115576;28;20051;-64
2022/01/28 04:03:42;;;;;;;20.92;3.22;;;5.70;99.90;;;;;;5119668;28;20106;-64
2022/01/28 04:11:40;;;;;;;18.42;3.25;;;5.60;99.90;;;;;;5115548;28;20134;-65
2022/01/28 04:14:13;;;;;;;18.58;3.63;;;5.70;99.90;;;;;;5121910;28;20052;-65
2022/01/28 04:19:24;;;;;;;21.60;4.93;;;5.60;99.90;;;;;;5114030;28;20055;-65
2022/01/28 04:21:50;;;;;;;17.95;3.75;;;5.50;99.90;;;;;;5122013;28;20048;-64
2022/01/28 04:24:16;;;;;;;22.08;3.80;;;5.50;99.90;;;;;;5122469;28;20063;-64
2022/01/28 04:26:42;;;;;;;24.08;3.50;;;5.50;99.90;;;;;;5124250;28;20151;-64
2022/01/28 04:29:08;;;;;;;22.35;3.35;;;5.60;99.90;;;;;;5122822;28;20073;-65
2022/01/28 04:31:35;;;;;;;18.15;3.40;;;5.50;99.90;;;;;;5123168;28;20054;-64
2022/01/28 04:34:02;;;;;;;18.65;3.17;;;5.40;99.90;;;;;;5124976;28;20048;-64
2022/01/28 04:36:33;;;;;;;24.15;3.88;;;5.30;99.90;;;;;;5127086;28;20116;-65
2022/01/28 04:39:11;;;;;;;21.83;3.75;;;5.30;99.90;;;;;;5126255;28;20051;-64
2022/01/28 04:41:51;;;;;;;20.48;3.22;;;5.30;99.90;;;;;;5126511;28;20043;-64
2022/01/28 04:44:23;;;;;;;14.13;2.83;;;5.20;99.90;;;;;;5127287;28;20039;-64
2022/01/28 04:46:55;;;;;;;24.60;3.80;;;5.10;99.90;;;;;;5126129;28;20050;-64
2022/01/28 04:49:52;;;;;;;22.63;3.10;;;5.00;99.90;;;;;;5124576;28;20086;-65
2022/01/28 04:54:51;;;;;;;24.33;4.13;;;4.90;99.90;;;;;;5126246;28;20063;-64
2022/01/28 04:57:30;;;;;;;17.40;4.28;;;4.90;99.90;;;;;;5120823;28;20044;-65
2022/01/28 05:00:28;;;;;;;28.05;5.10;;;4.90;99.90;;;;;;5113776;28;20079;-64
2022/01/28 05:16:30;;;;;;;28.20;4.70;;;4.90;99.90;;;;;;5126592;28;20077;-65
2022/01/28 05:26:52;;;;;;;26.55;4.32;;;5.10;99.90;;;;;;5121454;27;20052;-64
2022/01/28 05:29:18;;;;;;;25.67;5.15;;;5.10;99.90;;;;;;5097955;28;20036;-65
2022/01/28 05:31:43;;;;;;;23.92;3.70;;;5.10;99.90;;;;;;5124114;28;20047;-65
2022/01/28 05:34:09;;;;;;;20.55;3.92;;;5.20;99.90;;;;;;5120389;28;20047;-65
2022/01/28 05:36:35;;;;;;;25.40;4.78;;;5.10;99.90;;;;;;5117425;28;20042;-65
2022/01/28 05:39:01;;;;;;;19.63;3.97;;;5.10;99.90;;;;;;5123336;28;20055;-65
2022/01/28 05:41:26;;;;;;;22.77;4.55;;;5.00;99.90;;;;;;5124345;28;20131;-65
2022/01/28 05:43:52;;;;;;;20.45;3.60;;;5.10;99.90;;;;;;5158764;27;20067;-64
2022/01/28 05:46:18;;;;;;;24.33;4.38;;;4.90;99.90;;;;;;5141633;27;20047;-64
2022/01/28 05:48:44;;;;;;;23.25;4.47;;;4.80;99.90;;;;;;5126031;28;20039;-64
2022/01/28 05:51:11;;;;;;;22.88;4.47;;;4.90;99.90;;;;;;5126505;28;20032;-65
2022/01/28 05:53:37;;;;;;;22.10;4.20;;;4.80;99.90;;;;;;5124809;28;20048;-64
2022/01/28 05:56:03;;;;;;;24.13;4.00;;;4.90;99.90;;;;;;5124157;28;20043;-64
2022/01/28 05:58:29;;;;;;;21.08;3.90;;;4.80;99.90;;;;;;5124804;28;20050;-65
2022/01/28 06:00:55;;;;;;;25.77;4.20;;;4.90;99.90;;;;;;5158492;27;20047;-65
2022/01/28 06:03:21;;;;;;;24.60;4.10;;;4.80;99.90;;;;;;5123233;28;20097;-66
2022/01/28 06:05:48;;;;;;;20.65;3.53;;;4.80;99.90;;;;;;5124172;28;20122;-66
2022/01/28 06:08:14;;;;;;;21.27;3.45;;;4.80;99.90;;;;;;5122867;28;20047;-66
2022/01/28 06:10:39;;;;;;;25.90;4.22;;;4.90;99.90;;;;;;5124218;28;20051;-65
2022/01/28 06:13:05;;;;;;;21.73;3.72;;;4.90;99.90;;;;;;5126530;28;20066;-66
2022/01/28 06:15:32;;;;;;;21.85;4.22;;;5.00;99.90;;;;;;5159275;27;20023;-66
2022/01/28 06:17:57;;;;;;;19.20;3.80;;;5.00;99.90;;;;;;5126609;28;20078;-66
2022/01/28 06:20:23;;;;;;;16.27;3.70;;;5.00;99.90;;;;;;5126772;28;20040;-67
2022/01/28 06:22:49;;;;;;;18.13;3.95;;;5.00;99.90;;;;;;5125112;28;20047;-66
2022/01/28 06:25:16;;;;;;;21.85;3.42;;;5.00;99.90;;;;;;5124439;28;20036;-66
2022/01/28 06:27:43;;;;;;;16.75;3.60;;;5.10;99.90;;;;;;5123338;28;20403;-66
2022/01/28 06:30:10;;;;;;;21.92;3.53;;;5.10;99.90;;;;;;5141342;27;20566;-66
2022/01/28 06:32:35;;;;;;;24.17;3.80;;;5.10;99.90;;;;;;5120794;28;20096;-66
2022/01/28 06:35:07;;;;;;;22.10;3.35;;;5.10;99.90;;;;;;5123640;28;20470;-67
2022/01/28 06:37:35;;;;;;;25.48;4.75;;;5.10;99.90;;;;;;5126131;28;20035;-66
2022/01/28 06:40:01;;;;;;;25.63;3.78;;;5.10;99.90;;;;;;5107241;28;20126;-65
2022/01/28 06:42:26;;;;;;;26.13;3.70;;;5.10;99.90;;;;;;5103006;27;20125;-64
2022/01/28 06:44:52;;;;;;;25.58;4.30;;;5.10;99.90;;;;;;5125098;27;20056;-65
2022/01/28 06:47:18;;;;;;;18.15;3.30;;;5.10;99.90;;;;;;5140778;27;20737;-63
2022/01/28 06:49:43;;;;;;;23.42;5.85;;;5.10;99.90;;;;;;5122889;27;20623;-63
2022/01/28 06:52:09;;;;;;;20.80;4.05;;;5.10;99.90;;;;;;5113531;27;20089;-63
2022/01/28 06:54:35;;;;;;;16.45;3.17;;;5.10;99.90;;;;;;5111918;27;20118;-63
2022/01/28 06:57:00;;;;;;;21.13;3.65;;;5.00;99.90;;;;;;5116119;28;20097;-63
2022/01/28 06:59:26;;;;;;;22.52;3.72;;;5.00;99.90;;;;;;5115942;27;20035;-63
2022/01/28 07:01:53;;;;;;;27.25;4.28;;;5.00;99.90;;;;;;5118704;27;20061;-63
2022/01/28 07:04:19;;;;;;;17.25;3.42;;;5.00;99.90;;;;;;5133914;27;20114;-63
2022/01/28 07:06:46;;;;;;;20.45;4.45;;;4.90;99.90;;;;;;5125094;27;20043;-63
2022/01/28 07:09:12;;;;;;;25.90;4.03;;;4.90;99.90;;;;;;5132809;27;20043;-63
2022/01/28 07:11:37;;;;;;;17.25;3.53;;;4.90;99.90;;;;;;5120805;27;20111;-63
2022/01/28 07:14:03;;;;;;;22.50;4.55;;;4.80;99.90;;;;;;5121199;27;20099;-63
2022/01/28 07:16:30;;;;;;;16.60;3.30;;;4.90;99.90;;;;;;5112955;27;20039;-63
2022/01/28 07:18:56;;;;;;;19.65;3.47;;;4.80;99.90;;;;;;5108164;27;20055;-63
2022/01/28 07:21:22;;;;;;;21.67;4.00;;;4.80;99.90;;;;;;5121952;27;20050;-63
2022/01/28 07:23:47;;;;;;;15.80;3.00;;;4.70;99.90;;;;;;5080738;28;20147;-63
2022/01/28 07:26:13;;;;;;;26.10;5.15;;;4.60;99.90;;;;;;5090619;28;20035;-63
2022/01/28 07:28:41;;;;;;;24.20;5.18;;;4.50;99.90;;;;;;5103779;27;20320;-63
2022/01/28 07:31:09;;;;;;;17.00;3.63;;;4.50;99.90;;;;;;5124245;27;20084;-63
2022/01/28 07:33:35;;;;;;;24.08;3.50;;;4.50;99.90;;;;;;5117178;27;20058;-63
2022/01/28 07:36:00;;;;;;;24.25;4.32;;;4.60;99.90;;;;;;5124177;27;20039;-63
2022/01/28 07:38:26;;;;;;;23.75;3.90;;;4.60;99.90;;;;;;5117036;27;20145;-63
2022/01/28 07:40:52;;;;;;;26.27;3.65;;;4.60;99.90;;;;;;5102482;28;20628;-63
2022/01/28 07:43:17;;;;;;;26.20;4.43;;;4.60;99.90;;;;;;5115972;27;20062;-63
2022/01/28 07:45:43;;;;;;;25.05;4.30;;;4.50;99.90;;;;;;5141775;27;20071;-63
2022/01/28 07:48:09;;;;;;;24.52;4.53;;;4.50;99.90;;;;;;5103470;27;20246;-63
2022/01/28 07:50:35;;;;;;;23.25;3.72;;;4.50;99.90;;;;;;5146548;27;20047;-63
2022/01/28 07:53:01;;;;;;;22.70;5.43;;;4.50;99.90;;;;;;5099753;28;20040;-63
2022/01/28 07:55:26;;;;;;;18.70;3.67;;;4.40;99.90;;;;;;5127331;27;20315;-63
2022/01/28 07:57:52;;;;;;;21.85;3.53;;;4.40;99.90;;;;;;5116106;28;20052;-63
2022/01/28 08:00:18;;;;;;;21.75;5.10;;;4.40;99.90;;;;;;5082037;28;20044;-63
2022/01/28 08:02:44;;;;;;;20.35;3.65;;;4.20;99.90;;;;;;5154526;27;20040;-62
2022/01/28 08:05:11;;;;;;;39.38;4.88;;;4.10;99.90;;;;;;5138092;27;20074;-63
2022/01/28 08:07:36;;;;;;;22.80;3.50;;;4.10;99.90;;;;;;5114032;28;20047;-63
2022/01/28 08:10:02;;;;;;;23.02;3.40;;;4.00;99.90;;;;;;5120482;27;20123;-63
2022/01/28 08:12:28;;;;;;;20.73;3.55;;;4.00;99.90;;;;;;5119867;28;20047;-63
2022/01/28 08:14:54;;;;;;;17.27;3.42;;;4.00;99.90;;;;;;5112327;27;20051;-62
2022/01/28 08:17:19;;;;;;;19.35;3.58;;;4.00;99.90;;;;;;5119069;28;20120;-63
2022/01/28 08:19:45;;;;;;;18.05;3.40;;;3.90;99.90;;;;;;5123960;27;20047;-64
2022/01/28 08:22:11;;;;;;;19.92;4.03;;;4.00;99.90;;;;;;5119918;27;20035;-63
2022/01/28 08:24:37;;;;;;;24.70;4.28;;;4.00;99.90;;;;;;5125395;27;20063;-63
2022/01/28 08:27:03;;;;;;;24.73;3.92;;;4.00;99.90;;;;;;5118336;27;20044;-64
2022/01/28 08:29:29;;;;;;;21.83;4.03;;;4.10;99.90;;;;;;5119613;27;20055;-63
2022/01/28 08:31:54;;;;;;;18.20;4.18;;;4.10;99.90;;;;;;5114274;28;20050;-63
2022/01/28 08:34:20;;;;;;;21.52;3.80;;;4.20;99.90;;;;;;5127586;27;20100;-63
2022/01/28 08:36:46;;;;;;;21.08;3.90;;;4.20;99.90;;;;;;5120754;27;20073;-63
2022/01/28 08:39:12;;;;;;;15.90;3.45;;;4.30;99.90;;;;;;5101870;27;20064;-63
2022/01/28 08:41:40;;;;;;;24.05;4.90;;;4.30;99.90;;;;;;5133085;27;20044;-63
2022/01/28 08:44:06;;;;;;;25.83;4.35;;;4.40;99.90;;;;;;5121644;27;20045;-63
2022/01/28 08:46:31;;;;;;;31.15;4.45;;;4.40;99.90;;;;;;5128478;27;20047;-63
2022/01/28 08:48:58;;;;;;;20.90;3.88;;;4.40;99.90;;;;;;5119597;27;20047;-63
2022/01/28 08:51:24;;;;;;;33.28;4.75;;;4.30;99.90;;;;;;5102820;27;20099;-63
2022/01/28 08:54:07;;;;;;;24.30;3.65;;;4.30;99.90;;;;;;5110309;22;21629;-63
2022/01/28 08:56:33;;;;;;;26.48;4.18;;;4.30;99.90;;;;;;5068436;23;20036;-63
2022/01/28 08:58:59;;;;;;;20.63;3.45;;;4.40;99.90;;;;;;5029990;28;20142;-63
2022/01/28 09:01:24;;;;;;;23.52;3.85;;;4.50;99.90;;;;;;5096044;28;20052;-63
2022/01/28 09:03:52;;;;;;;22.77;4.20;;;4.50;99.90;;;;;;5116125;28;20054;-63
2022/01/28 09:06:17;;;;;;;18.17;3.90;;;4.60;99.90;;;;;;5088481;28;20075;-63
2022/01/28 09:08:44;;;;;;;20.52;3.45;;;4.70;99.90;;;;;;5112131;28;20051;-63
2022/01/28 09:11:32;;;;;;;26.73;4.53;;;4.90;99.90;;;;;;5105040;28;20101;-63
2022/01/28 09:13:58;;;;;;;22.65;4.25;;;5.10;99.90;;;;;;5110562;28;20052;-63
2022/01/28 09:16:24;;;;;;;23.27;3.60;;;5.20;99.90;;;;;;5088316;28;20067;-63
2022/01/28 09:18:50;;;;;;;21.55;4.18;;;5.20;99.90;;;;;;5094561;28;20050;-64
2022/01/28 09:21:16;;;;;;;20.60;3.72;;;5.30;99.90;;;;;;5121565;28;20040;-63
2022/01/28 09:23:42;;;;;;;28.70;3.72;;;5.20;99.90;;;;;;5111636;28;20090;-63
2022/01/28 09:26:08;;;;;;;21.95;3.90;;;5.20;99.90;;;;;;5087519;28;20034;-63
2022/01/28 09:28:33;;;;;;;21.00;3.92;;;5.30;99.90;;;;;;5092877;28;20085;-63
2022/01/28 09:30:59;;;;;;;21.73;3.58;;;5.30;99.90;;;;;;5087754;28;20109;-62
2022/01/28 09:33:25;;;;;;;19.90;4.47;;;5.40;99.90;;;;;;5109153;28;20052;-62
2022/01/28 09:35:51;;;;;;;22.83;4.82;;;5.40;99.90;;;;;;5084132;28;20050;-63
2022/01/28 09:38:16;;;;;;;19.77;4.50;;;5.50;99.90;;;;;;5073212;28;20055;-63
2022/01/28 09:40:42;;;;;;;21.50;4.20;;;5.50;99.90;;;;;;5077653;28;20048;-62
2022/01/28 09:43:08;;;;;;;25.73;3.92;;;5.60;99.90;;;;;;5094606;28;20297;-62
2022/01/28 09:45:35;;;;;;;20.38;3.35;;;5.70;99.90;;;;;;5104103;28;20044;-63
2022/01/28 09:48:01;;;;;;;19.52;3.75;;;5.70;99.90;;;;;;5076662;28;20055;-63
2022/01/28 09:50:30;;;;;;;20.13;3.40;;;5.80;99.90;;;;;;5100342;28;20103;-63
2022/01/28 09:52:57;;;;;;;19.00;4.47;;;5.80;99.90;;;;;;5094272;28;20040;-63
2022/01/28 09:55:25;;;;;;;23.60;3.50;;;5.90;99.90;;;;;;5104235;28;20032;-62
2022/01/28 09:57:53;;;;;;;32.13;5.93;;;6.00;99.90;;;;;;5067277;28;20252;-63
2022/01/28 10:00:22;;;;;;;24.08;4.38;;;6.00;99.90;;;;;;5096897;28;20347;-63
2022/01/28 10:02:58;;;;;;;20.13;4.03;;;6.10;99.90;;;;;;5085673;28;20049;-63
2022/01/28 10:05:33;;;;;;;20.90;4.28;;;6.30;99.90;;;;;;5059580;28;20032;-63
2022/01/28 10:08:02;;;;;;;17.63;3.00;;;6.40;99.90;;;;;;5072587;28;20087;-63
2022/01/28 10:11:03;;;;;;;26.25;3.90;;;6.30;99.90;;;;;;5100742;28;20040;-63
2022/01/28 10:13:36;;;;;;;22.77;4.38;;;6.30;99.90;;;;;;5062339;28;20045;-63
2022/01/28 10:16:19;;;;;;;27.85;4.45;;;6.30;99.90;;;;;;5101293;28;20070;-63
2022/01/28 10:18:51;;;;;;;24.10;4.15;;;6.30;99.90;;;;;;5092394;28;20462;-63
2022/01/28 10:21:20;;;;;;;21.45;3.95;;;6.30;99.90;;;;;;5103981;28;20036;-63
2022/01/28 10:24:05;;;;;;;19.42;4.20;;;6.40;99.90;;;;;;5076010;28;20330;-63
2022/01/28 10:26:37;;;;;;;22.23;3.80;;;6.40;99.90;;;;;;5103220;28;20052;-63
2022/01/28 10:29:06;;;;;;;19.40;3.65;;;6.40;99.90;;;;;;5075703;28;20059;-63
2022/01/28 10:32:03;;;;;;;19.73;4.05;;;6.40;99.90;;;;;;5085884;28;20042;-63
2022/01/28 10:34:40;;;;;;;25.10;4.97;;;6.50;99.90;;;;;;5058437;28;20044;-63
2022/01/28 10:37:18;;;;;;;23.95;4.85;;;6.50;99.90;;;;;;5073680;28;20059;-63
2022/01/28 10:39:44;;;;;;;21.63;4.00;;;6.50;99.90;;;;;;5054588;28;20056;-63
2022/01/28 10:42:14;;;;;;;20.55;4.05;;;6.70;99.90;;;;;;5055892;28;20048;-63
2022/01/28 10:44:51;;;;;;;20.70;4.75;;;6.70;99.90;;;;;;5085503;28;20094;-63
2022/01/28 10:47:38;;;;;;;25.77;4.35;;;6.70;99.90;;;;;;5075246;28;20313;-63
2022/01/28 10:50:30;;;;;;;26.08;4.25;;;6.70;99.90;;;;;;5085754;28;20262;-64
2022/01/28 10:53:01;;;;;;;20.70;4.13;;;6.80;99.90;;;;;;5075798;28;20051;-63
2022/01/28 10:55:29;;;;;;;25.50;4.50;;;6.80;99.90;;;;;;5102874;28;20203;-63
2022/01/28 10:58:05;;;;;;;22.85;4.90;;;6.90;99.90;;;;;;5092779;28;20044;-63
2022/01/28 11:00:33;;;;;;;19.67;3.63;;;7.00;99.90;;;;;;5085285;28;20379;-63
2022/01/28 11:03:01;;;;;;;22.48;4.93;;;6.90;99.90;;;;;;5079977;28;20132;-63
2022/01/28 11:05:31;;;;;;;20.58;3.85;;;7.00;99.90;;;;;;5093155;28;20358;-63
2022/01/28 11:07:58;;;;;;;21.35;3.67;;;7.10;99.90;;;;;;5092548;28;20044;-62
2022/01/28 11:10:24;;;;;;;27.73;5.10;;;7.10;99.90;;;;;;5084956;28;20044;-63
2022/01/28 11:12:51;;;;;;;21.38;3.55;;;7.00;99.90;;;;;;5092542;28;20048;-62
2022/01/28 11:15:18;;;;;;;15.65;3.72;;;7.00;99.90;;;;;;5085247;28;20031;-62
2022/01/28 11:17:44;;;;;;;23.55;3.40;;;6.90;99.90;;;;;;5092493;28;20358;-63
2022/01/28 11:20:12;;;;;;;22.02;3.97;;;6.80;99.90;;;;;;5084959;28;20063;-64
2022/01/28 11:23:09;;;;;;;22.58;4.10;;;6.80;99.90;;;;;;5074823;28;20063;-62
2022/01/28 11:26:14;;;;;;;18.73;4.57;;;6.90;99.90;;;;;;5102769;28;20072;-63
2022/01/28 11:28:51;;;;;;;24.40;4.35;;;6.90;99.90;;;;;;5074638;28;20077;-63
2022/01/28 11:31:43;;;;;;;18.90;3.35;;;7.00;99.90;;;;;;5102817;28;20058;-63
2022/01/28 11:34:31;;;;;;;22.67;4.15;;;7.10;99.90;;;;;;5081529;28;20041;-63
2022/01/28 11:37:18;;;;;;;25.33;5.18;;;7.10;99.90;;;;;;5082999;28;20051;-62
2022/01/28 11:39:46;;;;;;;23.25;3.50;;;7.00;99.90;;;;;;5027748;28;20068;-62
2022/01/28 11:42:30;;;;;;;21.27;3.83;;;7.10;99.90;;;;;;5071469;28;20090;-62
2022/01/28 11:44:59;;;;;;;24.77;3.60;;;7.10;99.90;;;;;;5117974;28;20035;-62
2022/01/28 11:47:35;;;;;;;20.92;3.30;;;7.10;99.90;;;;;;5092542;28;20047;-62
2022/01/28 11:50:12;;;;;;;21.45;4.15;;;7.10;99.90;;;;;;5108352;28;20049;-62
2022/01/28 11:52:42;;;;;;;17.63;3.63;;;7.00;99.90;;;;;;5109142;28;20052;-63
2022/01/28 11:55:14;;;;;;;16.92;3.13;;;7.00;99.90;;;;;;5091589;28;20342;-63
2022/01/28 11:57:55;;;;;;;20.08;3.97;;;7.00;99.90;;;;;;5092509;28;20047;-63
2022/01/28 12:00:36;;;;;;;19.40;3.60;;;7.00;99.90;;;;;;5101142;28;20056;-62
2022/01/28 12:03:21;;;;;;;20.13;5.00;;;7.10;99.90;;;;;;5092014;28;20131;-63
2022/01/28 12:05:47;;;;;;;25.95;4.38;;;7.10;99.90;;;;;;5071807;28;20053;-63
2022/01/28 12:08:14;;;;;;;18.45;3.45;;;7.20;99.90;;;;;;5080104;28;20079;-63
2022/01/28 12:10:45;;;;;;;19.67;4.15;;;7.20;99.90;;;;;;5090424;28;20241;-62
2022/01/28 12:13:16;;;;;;;24.23;4.38;;;7.20;99.90;;;;;;5079838;28;20048;-62
2022/01/28 12:16:01;;;;;;;12.98;2.92;;;7.00;99.90;;;;;;5090210;28;20037;-62
2022/01/28 12:18:45;;;;;;;25.25;3.78;;;7.00;99.90;;;;;;5081719;28;20048;-62
2022/01/28 12:21:15;;;;;;;17.98;2.92;;;7.20;99.90;;;;;;5086127;28;20401;-63
2022/01/28 12:23:41;;;;;;;16.80;3.90;;;7.40;99.90;;;;;;5087957;28;20287;-63
2022/01/28 12:26:07;;;;;;;19.20;4.68;;;7.50;99.90;;;;;;5064269;28;20201;-62
2022/01/28 12:28:33;;;;;;;19.63;3.92;;;7.50;99.90;;;;;;5087734;28;20092;-63
2022/01/28 12:31:07;;;;;;;20.45;3.47;;;7.30;99.90;;;;;;5090159;28;20044;-62
2022/01/28 12:33:42;;;;;;;20.17;4.70;;;7.30;99.90;;;;;;5074670;28;20115;-63
2022/01/28 12:36:21;;;;;;;24.45;3.90;;;7.20;99.90;;;;;;5102152;28;20032;-63
2022/01/28 12:39:32;;;;;;;22.75;4.10;;;7.20;99.90;;;;;;5087532;28;20063;-62
2022/01/28 12:42:03;;;;;;;16.08;3.35;;;7.20;99.90;;;;;;5080202;28;20059;-62
2022/01/28 12:44:32;;;;;;;24.27;4.38;;;7.40;99.90;;;;;;5089739;28;20418;-62
2022/01/28 12:47:01;;;;;;;19.40;3.95;;;7.40;99.90;;;;;;5102129;28;20099;-62
2022/01/28 12:49:30;;;;;;;18.45;3.08;;;7.30;99.90;;;;;;5094618;28;20385;-62
2022/01/28 12:52:02;;;;;;;24.08;3.55;;;7.40;99.90;;;;;;5087823;28;20040;-63
2022/01/28 12:54:33;;;;;;;15.07;3.67;;;7.60;99.90;;;;;;5094607;28;20050;-63
2022/01/28 12:56:59;;;;;;;19.13;4.05;;;7.80;99.90;;;;;;5087863;28;20079;-62
2022/01/28 12:59:25;;;;;;;14.82;3.03;;;7.80;99.90;;;;;;5077211;28;20071;-63
2022/01/28 13:01:52;;;;;;;20.88;3.30;;;8.00;99.90;;;;;;5105894;28;20052;-62
2022/01/28 13:04:21;;;;;;;16.77;3.13;;;8.00;99.90;;;;;;5094124;28;20055;-63
2022/01/28 13:09:20;;;;;;;19.13;3.00;;;7.60;99.90;;;;;;5071132;28;20065;-63
2022/01/28 13:11:47;;;;;;;16.67;3.60;;;7.50;99.90;;;;;;5086678;28;20028;-62
2022/01/28 13:14:18;;;;;;;17.73;3.38;;;7.40;99.90;;;;;;5069702;28;20052;-63
2022/01/28 13:16:45;;;;;;;17.38;3.00;;;7.40;99.90;;;;;;5104796;28;20057;-63
2022/01/28 13:19:13;;;;;;;19.52;3.20;;;7.60;99.90;;;;;;5092723;28;20055;-62
2022/01/28 13:21:41;;;;;;;19.13;3.60;;;7.60;99.90;;;;;;5072353;28;20337;-62
2022/01/28 13:24:19;;;;;;;17.85;3.38;;;7.60;99.90;;;;;;5094306;28;20123;-63
2022/01/28 13:27:11;;;;;;;24.63;4.38;;;7.60;99.90;;;;;;5087604;28;20520;-62
2022/01/28 13:29:38;;;;;;;19.85;3.88;;;7.70;99.90;;;;;;5106564;28;20059;-62
2022/01/28 13:32:08;;;;;;;23.50;3.00;;;7.80;99.90;;;;;;5099515;28;20071;-63
2022/01/28 13:34:48;;;;;;;18.05;3.08;;;7.90;99.90;;;;;;5111667;28;20051;-63
2022/01/28 13:37:38;;;;;;;12.45;2.80;;;7.90;99.90;;;;;;5099190;28;20107;-63
2022/01/28 13:40:26;;;;;;;14.20;3.20;;;7.80;99.90;;;;;;5051129;28;20043;-63
2022/01/28 13:43:19;;;;;;;15.73;2.88;;;7.60;99.90;;;;;;5051279;28;20250;-63
2022/01/28 13:45:53;;;;;;;20.08;3.55;;;7.60;99.90;;;;;;5058611;28;20052;-63
2022/01/28 13:48:39;;;;;;;16.55;3.10;;;7.50;99.90;;;;;;5075429;28;20120;-62
2022/01/28 13:51:15;;;;;;;21.15;3.35;;;7.30;99.90;;;;;;5067177;28;20048;-62
2022/01/28 13:56:43;;;;;;;17.27;3.25;;;7.20;99.90;;;;;;5084773;28;20179;-63
2022/01/28 13:59:14;;;;;;;16.63;2.90;;;7.40;99.90;;;;;;5086355;28;20044;-63
2022/01/28 14:01:48;;;;;;;17.88;3.47;;;7.50;99.90;;;;;;5089105;28;20295;-62
2022/01/28 14:04:38;;;;;;;16.02;3.47;;;7.50;99.90;;;;;;5063845;28;20250;-63
2022/01/28 14:07:18;;;;;;;22.25;3.90;;;7.60;99.90;;;;;;5101209;28;20313;-62
2022/01/28 14:09:58;;;;;;;17.05;3.20;;;7.50;99.90;;;;;;5093161;28;20157;-62
2022/01/28 14:15:11;;;;;;;16.65;3.20;;;7.30;99.90;;;;;;5093105;28;20048;-63
2022/01/28 14:17:37;;;;;;;14.88;3.40;;;7.20;99.90;;;;;;5104704;28;20039;-62
2022/01/28 14:20:04;;;;;;;18.98;3.75;;;7.20;99.90;;;;;;5088725;28;20329;-62
2022/01/28 14:22:29;;;;;;;15.38;3.22;;;7.10;99.90;;;;;;5103806;28;20052;-63